KNUI Airport (Webster Nolf) Information

FAA: NUI - ICAO: KNUI

KNUI Airport Location

State Maryland
County Wicomico
City St Inigoes
KNUI Airport is 2 miles west of St Inigoes, MD.
Latitude 38-08-45.6000N
Longitude 076-25-42.5000W
Elevation 21ft

KNUI Airport METARs

METAR KNUI 161853Z AUTO 04005KT 10SM FEW015 28/21 A3007 RMK AO2 SLP183 T02780211
Altimeter 30.07"
Temperature 27.8°C (82.0°F)
Wind 40° at 5KT
Clouds few at 1,500ft
Visibility 10.0mi
Time observed: 2021-09-16T18:53:00Z

KNUI Airport Details

Status Operational
Activation N/A
Ownership Military - Army
Usage Private
Chart WASHINGTON
ATC on-site Yes
Beacon schedule N/A
Beacon color N/A

KNUI Airport Contacts

Owner NAVY
Owner address NAWCAD PAX RIVER-UNIT 11, ST INIGOES, MD 20684-0010
Owner phone 301-862-8209
Manager JAMES MARCUM
Manager address 100 HOSPITAL ROAD, PRINCE FREDERICK, MD 20678
Manager phone (410) 535-8314

KNUI Airport (Webster Nolf) Radio Frequencies

KNUI (Airport) Radio Frequencies

UNICOM N/A
Common traffic advisory frequency (CTAF) N/A